sensor_id;sensor_type;location;lat;lon;timestamp;P1;durP1;ratioP1;P2;durP2;ratioP2
59440;SDS011;45245;51.538;11.870;2022-07-24T00:02:15;2.10;;;2.00;;
59440;SDS011;45245;51.538;11.870;2022-07-24T00:04:40;2.30;;;2.10;;
59440;SDS011;45245;51.538;11.870;2022-07-24T00:07:05;1.85;;;1.75;;
59440;SDS011;45245;51.538;11.870;2022-07-24T00:09:31;2.08;;;1.98;;
59440;SDS011;45245;51.538;11.870;2022-07-24T00:11:56;2.78;;;2.15;;
59440;SDS011;45245;51.538;11.870;2022-07-24T00:14:22;2.63;;;1.60;;
59440;SDS011;45245;51.538;11.870;2022-07-24T00:16:47;1.73;;;1.63;;
59440;SDS011;45245;51.538;11.870;2022-07-24T00:19:12;2.22;;;1.75;;
59440;SDS011;45245;51.538;11.870;2022-07-24T00:21:38;1.85;;;1.75;;
59440;SDS011;45245;51.538;11.870;2022-07-24T00:24:03;2.08;;;1.98;;
59440;SDS011;45245;51.538;11.870;2022-07-24T00:26:29;1.90;;;1.80;;
59440;SDS011;45245;51.538;11.870;2022-07-24T00:28:54;1.70;;;1.60;;
59440;SDS011;45245;51.538;11.870;2022-07-24T00:31:19;2.28;;;1.77;;
59440;SDS011;45245;51.538;11.870;2022-07-24T00:33:45;2.30;;;1.90;;
59440;SDS011;45245;51.538;11.870;2022-07-24T00:36:11;2.10;;;1.90;;
59440;SDS011;45245;51.538;11.870;2022-07-24T00:38:36;2.50;;;2.00;;
59440;SDS011;45245;51.538;11.870;2022-07-24T00:41:02;3.30;;;2.47;;
59440;SDS011;45245;51.538;11.870;2022-07-24T00:43:27;1.60;;;1.50;;
59440;SDS011;45245;51.538;11.870;2022-07-24T00:45:52;2.90;;;2.10;;
59440;SDS011;45245;51.538;11.870;2022-07-24T00:48:18;1.98;;;1.88;;
59440;SDS011;45245;51.538;11.870;2022-07-24T00:50:43;2.28;;;1.70;;
59440;SDS011;45245;51.538;11.870;2022-07-24T00:53:09;1.83;;;1.65;;
59440;SDS011;45245;51.538;11.870;2022-07-24T00:55:35;2.45;;;2.15;;
59440;SDS011;45245;51.538;11.870;2022-07-24T00:58:00;2.00;;;1.90;;
59440;SDS011;45245;51.538;11.870;2022-07-24T01:00:26;1.67;;;1.58;;
59440;SDS011;45245;51.538;11.870;2022-07-24T01:02:52;1.70;;;1.60;;
59440;SDS011;45245;51.538;11.870;2022-07-24T01:05:17;1.92;;;1.73;;
59440;SDS011;45245;51.538;11.870;2022-07-24T01:07:43;2.75;;;2.15;;
59440;SDS011;45245;51.538;11.870;2022-07-24T01:10:09;2.20;;;2.00;;
59440;SDS011;45245;51.538;11.870;2022-07-24T01:12:35;1.92;;;1.75;;
59440;SDS011;45245;51.538;11.870;2022-07-24T01:15:02;1.80;;;1.70;;
59440;SDS011;45245;51.538;11.870;2022-07-24T01:17:29;2.75;;;2.55;;
59440;SDS011;45245;51.538;11.870;2022-07-24T01:19:58;2.10;;;2.00;;
59440;SDS011;45245;51.538;11.870;2022-07-24T01:22:24;1.92;;;1.83;;
59440;SDS011;45245;51.538;11.870;2022-07-24T01:24:51;2.00;;;1.90;;
59440;SDS011;45245;51.538;11.870;2022-07-24T01:27:16;1.95;;;1.85;;
59440;SDS011;45245;51.538;11.870;2022-07-24T01:29:41;1.75;;;1.65;;
59440;SDS011;45245;51.538;11.870;2022-07-24T01:32:07;1.73;;;1.63;;
59440;SDS011;45245;51.538;11.870;2022-07-24T01:34:32;2.00;;;1.90;;
59440;SDS011;45245;51.538;11.870;2022-07-24T01:36:57;2.08;;;1.98;;
59440;SDS011;45245;51.538;11.870;2022-07-24T01:39:23;2.33;;;2.20;;
59440;SDS011;45245;51.538;11.870;2022-07-24T01:41:48;1.90;;;1.80;;
59440;SDS011;45245;51.538;11.870;2022-07-24T01:44:13;2.20;;;2.00;;
59440;SDS011;45245;51.538;11.870;2022-07-24T01:46:39;1.80;;;1.70;;
59440;SDS011;45245;51.538;11.870;2022-07-24T01:49:04;2.00;;;1.90;;
59440;SDS011;45245;51.538;11.870;2022-07-24T01:51:29;2.42;;;2.15;;
59440;SDS011;45245;51.538;11.870;2022-07-24T01:53:55;3.38;;;2.20;;
59440;SDS011;45245;51.538;11.870;2022-07-24T01:56:20;2.97;;;2.08;;
59440;SDS011;45245;51.538;11.870;2022-07-24T01:58:46;2.03;;;1.90;;
59440;SDS011;45245;51.538;11.870;2022-07-24T02:01:11;2.05;;;1.95;;
59440;SDS011;45245;51.538;11.870;2022-07-24T02:03:36;2.30;;;2.10;;
59440;SDS011;45245;51.538;11.870;2022-07-24T02:06:02;2.13;;;2.03;;
59440;SDS011;45245;51.538;11.870;2022-07-24T02:08:27;2.20;;;2.00;;
59440;SDS011;45245;51.538;11.870;2022-07-24T02:10:52;2.30;;;2.20;;
59440;SDS011;45245;51.538;11.870;2022-07-24T02:13:18;2.28;;;2.10;;
59440;SDS011;45245;51.538;11.870;2022-07-24T02:15:43;2.47;;;2.28;;
59440;SDS011;45245;51.538;11.870;2022-07-24T02:18:09;2.25;;;1.98;;
59440;SDS011;45245;51.538;11.870;2022-07-24T02:20:34;2.10;;;1.90;;
59440;SDS011;45245;51.538;11.870;2022-07-24T02:22:59;2.20;;;2.00;;
59440;SDS011;45245;51.538;11.870;2022-07-24T02:25:25;2.25;;;2.05;;
59440;SDS011;45245;51.538;11.870;2022-07-24T02:27:50;2.28;;;1.77;;
59440;SDS011;45245;51.538;11.870;2022-07-24T02:30:18;2.53;;;1.80;;
59440;SDS011;45245;51.538;11.870;2022-07-24T02:32:44;2.95;;;2.40;;
59440;SDS011;45245;51.538;11.870;2022-07-24T02:35:10;2.28;;;2.08;;
59440;SDS011;45245;51.538;11.870;2022-07-24T02:37:36;3.22;;;2.03;;
59440;SDS011;45245;51.538;11.870;2022-07-24T02:40:03;2.60;;;2.30;;
59440;SDS011;45245;51.538;11.870;2022-07-24T02:42:29;1.90;;;1.80;;
59440;SDS011;45245;51.538;11.870;2022-07-24T02:44:54;2.13;;;1.88;;
59440;SDS011;45245;51.538;11.870;2022-07-24T02:47:19;1.80;;;1.70;;
59440;SDS011;45245;51.538;11.870;2022-07-24T02:49:45;2.05;;;1.95;;
59440;SDS011;45245;51.538;11.870;2022-07-24T02:52:10;2.30;;;2.20;;
59440;SDS011;45245;51.538;11.870;2022-07-24T02:54:35;2.20;;;2.00;;
59440;SDS011;45245;51.538;11.870;2022-07-24T02:57:01;2.40;;;2.20;;
59440;SDS011;45245;51.538;11.870;2022-07-24T02:59:26;2.53;;;2.08;;
59440;SDS011;45245;51.538;11.870;2022-07-24T03:01:51;1.85;;;1.75;;
59440;SDS011;45245;51.538;11.870;2022-07-24T03:04:17;2.13;;;1.95;;
59440;SDS011;45245;51.538;11.870;2022-07-24T03:06:42;2.83;;;2.53;;
59440;SDS011;45245;51.538;11.870;2022-07-24T03:09:07;2.10;;;2.00;;
59440;SDS011;45245;51.538;11.870;2022-07-24T03:11:33;2.75;;;2.17;;
59440;SDS011;45245;51.538;11.870;2022-07-24T03:13:58;2.35;;;2.20;;
59440;SDS011;45245;51.538;11.870;2022-07-24T03:16:23;2.30;;;2.15;;
59440;SDS011;45245;51.538;11.870;2022-07-24T03:18:49;2.08;;;1.98;;
59440;SDS011;45245;51.538;11.870;2022-07-24T03:21:15;2.50;;;2.25;;
59440;SDS011;45245;51.538;11.870;2022-07-24T03:23:41;2.20;;;2.10;;
59440;SDS011;45245;51.538;11.870;2022-07-24T03:26:07;2.78;;;2.20;;
59440;SDS011;45245;51.538;11.870;2022-07-24T03:28:32;2.40;;;2.10;;
59440;SDS011;45245;51.538;11.870;2022-07-24T03:30:58;2.03;;;1.83;;
59440;SDS011;45245;51.538;11.870;2022-07-24T03:33:25;2.45;;;2.25;;
59440;SDS011;45245;51.538;11.870;2022-07-24T03:35:51;2.55;;;1.90;;
59440;SDS011;45245;51.538;11.870;2022-07-24T03:38:16;2.85;;;2.03;;
59440;SDS011;45245;51.538;11.870;2022-07-24T03:40:41;2.63;;;2.38;;
59440;SDS011;45245;51.538;11.870;2022-07-24T03:43:07;2.92;;;2.20;;
59440;SDS011;45245;51.538;11.870;2022-07-24T03:45:32;2.72;;;2.28;;
59440;SDS011;45245;51.538;11.870;2022-07-24T03:47:57;1.90;;;1.80;;
59440;SDS011;45245;51.538;11.870;2022-07-24T03:50:23;2.10;;;2.00;;
59440;SDS011;45245;51.538;11.870;2022-07-24T03:52:49;2.63;;;2.20;;
59440;SDS011;45245;51.538;11.870;2022-07-24T03:55:14;2.03;;;1.92;;
59440;SDS011;45245;51.538;11.870;2022-07-24T03:57:39;2.45;;;2.25;;
59440;SDS011;45245;51.538;11.870;2022-07-24T04:00:05;2.50;;;2.03;;
59440;SDS011;45245;51.538;11.870;2022-07-24T04:02:31;3.67;;;2.35;;
59440;SDS011;45245;51.538;11.870;2022-07-24T04:04:57;3.40;;;2.58;;
59440;SDS011;45245;51.538;11.870;2022-07-24T04:07:22;2.53;;;2.13;;
59440;SDS011;45245;51.538;11.870;2022-07-24T04:09:47;3.20;;;2.00;;
59440;SDS011;45245;51.538;11.870;2022-07-24T04:12:13;2.70;;;2.42;;
59440;SDS011;45245;51.538;11.870;2022-07-24T04:14:38;2.22;;;2.10;;
59440;SDS011;45245;51.538;11.870;2022-07-24T04:17:03;2.50;;;2.30;;
59440;SDS011;45245;51.538;11.870;2022-07-24T04:19:29;2.60;;;2.40;;
59440;SDS011;45245;51.538;11.870;2022-07-24T04:21:54;2.80;;;2.38;;
59440;SDS011;45245;51.538;11.870;2022-07-24T04:24:20;3.30;;;2.17;;
59440;SDS011;45245;51.538;11.870;2022-07-24T04:26:45;3.38;;;2.40;;
59440;SDS011;45245;51.538;11.870;2022-07-24T04:29:11;2.95;;;2.55;;
59440;SDS011;45245;51.538;11.870;2022-07-24T04:31:36;2.95;;;2.33;;
59440;SDS011;45245;51.538;11.870;2022-07-24T04:34:01;2.33;;;2.15;;
59440;SDS011;45245;51.538;11.870;2022-07-24T04:36:27;3.88;;;2.25;;
59440;SDS011;45245;51.538;11.870;2022-07-24T04:38:52;2.60;;;2.40;;
59440;SDS011;45245;51.538;11.870;2022-07-24T04:41:17;2.72;;;2.53;;
59440;SDS011;45245;51.538;11.870;2022-07-24T04:43:43;3.47;;;2.10;;
59440;SDS011;45245;51.538;11.870;2022-07-24T04:46:09;2.35;;;2.15;;
59440;SDS011;45245;51.538;11.870;2022-07-24T04:48:34;2.85;;;2.55;;
59440;SDS011;45245;51.538;11.870;2022-07-24T04:50:59;3.20;;;2.40;;
59440;SDS011;45245;51.538;11.870;2022-07-24T04:53:24;2.72;;;2.10;;
59440;SDS011;45245;51.538;11.870;2022-07-24T04:55:50;4.28;;;2.38;;
59440;SDS011;45245;51.538;11.870;2022-07-24T04:58:15;2.53;;;2.33;;
59440;SDS011;45245;51.538;11.870;2022-07-24T05:00:40;2.50;;;2.30;;
59440;SDS011;45245;51.538;11.870;2022-07-24T05:03:06;3.00;;;2.80;;
59440;SDS011;45245;51.538;11.870;2022-07-24T05:05:31;3.67;;;2.03;;
59440;SDS011;45245;51.538;11.870;2022-07-24T05:07:57;3.33;;;2.60;;
59440;SDS011;45245;51.538;11.870;2022-07-24T05:10:22;2.42;;;2.22;;
59440;SDS011;45245;51.538;11.870;2022-07-24T05:12:47;2.55;;;2.35;;
59440;SDS011;45245;51.538;11.870;2022-07-24T05:15:12;2.60;;;2.40;;
59440;SDS011;45245;51.538;11.870;2022-07-24T05:17:38;2.65;;;2.45;;
59440;SDS011;45245;51.538;11.870;2022-07-24T05:20:04;2.88;;;2.53;;
59440;SDS011;45245;51.538;11.870;2022-07-24T05:22:30;2.75;;;2.55;;
59440;SDS011;45245;51.538;11.870;2022-07-24T05:24:56;2.90;;;2.42;;
59440;SDS011;45245;51.538;11.870;2022-07-24T05:27:21;2.78;;;2.53;;
59440;SDS011;45245;51.538;11.870;2022-07-24T05:29:47;3.03;;;2.72;;
59440;SDS011;45245;51.538;11.870;2022-07-24T05:32:12;2.65;;;2.45;;
59440;SDS011;45245;51.538;11.870;2022-07-24T05:34:38;2.78;;;2.58;;
59440;SDS011;45245;51.538;11.870;2022-07-24T05:37:03;2.78;;;2.58;;
59440;SDS011;45245;51.538;11.870;2022-07-24T05:39:28;3.00;;;2.47;;
59440;SDS011;45245;51.538;11.870;2022-07-24T05:41:54;2.60;;;2.40;;
59440;SDS011;45245;51.538;11.870;2022-07-24T05:44:19;2.88;;;2.67;;
59440;SDS011;45245;51.538;11.870;2022-07-24T05:46:44;2.42;;;2.33;;
59440;SDS011;45245;51.538;11.870;2022-07-24T05:49:10;2.83;;;2.35;;
59440;SDS011;45245;51.538;11.870;2022-07-24T05:51:35;3.00;;;2.70;;
59440;SDS011;45245;51.538;11.870;2022-07-24T05:54:01;2.72;;;2.53;;
59440;SDS011;45245;51.538;11.870;2022-07-24T05:56:27;3.08;;;2.88;;
59440;SDS011;45245;51.538;11.870;2022-07-24T05:58:53;3.70;;;2.65;;
59440;SDS011;45245;51.538;11.870;2022-07-24T06:01:18;2.70;;;2.50;;
59440;SDS011;45245;51.538;11.870;2022-07-24T06:03:43;3.38;;;2.88;;
59440;SDS011;45245;51.538;11.870;2022-07-24T06:06:09;2.75;;;2.55;;
59440;SDS011;45245;51.538;11.870;2022-07-24T06:08:34;2.83;;;2.58;;
59440;SDS011;45245;51.538;11.870;2022-07-24T06:10:59;2.95;;;2.70;;
59440;SDS011;45245;51.538;11.870;2022-07-24T06:13:25;2.53;;;2.30;;
59440;SDS011;45245;51.538;11.870;2022-07-24T06:15:50;2.67;;;2.47;;
59440;SDS011;45245;51.538;11.870;2022-07-24T06:18:15;2.70;;;2.50;;
59440;SDS011;45245;51.538;11.870;2022-07-24T06:20:40;2.80;;;2.60;;
59440;SDS011;45245;51.538;11.870;2022-07-24T06:23:06;2.97;;;2.78;;
59440;SDS011;45245;51.538;11.870;2022-07-24T06:25:31;2.45;;;2.25;;
59440;SDS011;45245;51.538;11.870;2022-07-24T06:27:57;2.70;;;2.50;;
59440;SDS011;45245;51.538;11.870;2022-07-24T06:30:23;2.95;;;2.75;;
59440;SDS011;45245;51.538;11.870;2022-07-24T06:32:54;2.42;;;2.33;;
59440;SDS011;45245;51.538;11.870;2022-07-24T06:35:21;3.08;;;2.58;;
59440;SDS011;45245;51.538;11.870;2022-07-24T06:37:47;3.58;;;2.70;;
59440;SDS011;45245;51.538;11.870;2022-07-24T06:40:12;2.25;;;2.05;;
59440;SDS011;45245;51.538;11.870;2022-07-24T06:42:38;2.40;;;2.10;;
59440;SDS011;45245;51.538;11.870;2022-07-24T06:45:04;2.72;;;2.53;;
59440;SDS011;45245;51.538;11.870;2022-07-24T06:47:29;2.67;;;2.47;;
59440;SDS011;45245;51.538;11.870;2022-07-24T06:49:55;4.47;;;2.50;;
59440;SDS011;45245;51.538;11.870;2022-07-24T06:52:21;2.55;;;2.35;;
59440;SDS011;45245;51.538;11.870;2022-07-24T06:54:47;2.58;;;2.38;;
59440;SDS011;45245;51.538;11.870;2022-07-24T06:57:13;2.42;;;2.22;;
59440;SDS011;45245;51.538;11.870;2022-07-24T06:59:38;3.75;;;2.67;;
59440;SDS011;45245;51.538;11.870;2022-07-24T07:02:04;2.83;;;2.50;;
59440;SDS011;45245;51.538;11.870;2022-07-24T07:04:29;3.95;;;2.33;;
59440;SDS011;45245;51.538;11.870;2022-07-24T07:06:54;2.42;;;2.20;;
59440;SDS011;45245;51.538;11.870;2022-07-24T07:09:20;3.97;;;2.38;;
59440;SDS011;45245;51.538;11.870;2022-07-24T07:11:45;2.67;;;2.47;;
59440;SDS011;45245;51.538;11.870;2022-07-24T07:14:10;3.33;;;2.63;;
59440;SDS011;45245;51.538;11.870;2022-07-24T07:16:36;2.78;;;2.58;;
59440;SDS011;45245;51.538;11.870;2022-07-24T07:19:01;2.80;;;2.40;;
59440;SDS011;45245;51.538;11.870;2022-07-24T07:21:26;2.97;;;2.55;;
59440;SDS011;45245;51.538;11.870;2022-07-24T07:23:52;6.20;;;2.42;;
59440;SDS011;45245;51.538;11.870;2022-07-24T07:26:17;3.47;;;2.35;;
59440;SDS011;45245;51.538;11.870;2022-07-24T07:28:43;1.98;;;1.88;;
59440;SDS011;45245;51.538;11.870;2022-07-24T07:31:08;3.72;;;2.58;;
59440;SDS011;45245;51.538;11.870;2022-07-24T07:33:34;2.72;;;2.10;;
59440;SDS011;45245;51.538;11.870;2022-07-24T07:35:59;3.08;;;2.33;;
59440;SDS011;45245;51.538;11.870;2022-07-24T07:38:24;2.38;;;2.20;;
59440;SDS011;45245;51.538;11.870;2022-07-24T07:40:50;3.45;;;2.17;;
59440;SDS011;45245;51.538;11.870;2022-07-24T07:43:15;1.88;;;1.77;;
59440;SDS011;45245;51.538;11.870;2022-07-24T07:45:40;2.33;;;2.10;;
59440;SDS011;45245;51.538;11.870;2022-07-24T07:48:06;2.17;;;2.03;;
59440;SDS011;45245;51.538;11.870;2022-07-24T07:50:31;2.00;;;1.90;;
59440;SDS011;45245;51.538;11.870;2022-07-24T07:52:56;4.18;;;2.20;;
59440;SDS011;45245;51.538;11.870;2022-07-24T07:55:22;2.05;;;1.90;;
59440;SDS011;45245;51.538;11.870;2022-07-24T07:57:47;1.92;;;1.83;;
59440;SDS011;45245;51.538;11.870;2022-07-24T08:00:14;2.15;;;2.00;;
59440;SDS011;45245;51.538;11.870;2022-07-24T08:02:40;2.20;;;2.05;;
59440;SDS011;45245;51.538;11.870;2022-07-24T08:05:05;1.95;;;1.85;;
59440;SDS011;45245;51.538;11.870;2022-07-24T08:07:31;2.70;;;1.80;;
59440;SDS011;45245;51.538;11.870;2022-07-24T08:09:57;1.75;;;1.65;;
59440;SDS011;45245;51.538;11.870;2022-07-24T08:12:22;1.90;;;1.80;;
59440;SDS011;45245;51.538;11.870;2022-07-24T08:14:48;2.53;;;2.33;;
59440;SDS011;45245;51.538;11.870;2022-07-24T08:17:13;1.73;;;1.63;;
59440;SDS011;45245;51.538;11.870;2022-07-24T08:19:38;2.20;;;2.00;;
59440;SDS011;45245;51.538;11.870;2022-07-24T08:22:04;1.83;;;1.70;;
59440;SDS011;45245;51.538;11.870;2022-07-24T08:24:30;2.38;;;1.65;;
59440;SDS011;45245;51.538;11.870;2022-07-24T08:26:57;2.92;;;1.80;;
59440;SDS011;45245;51.538;11.870;2022-07-24T08:29:23;1.70;;;1.60;;
59440;SDS011;45245;51.538;11.870;2022-07-24T08:31:49;1.90;;;1.80;;
59440;SDS011;45245;51.538;11.870;2022-07-24T08:34:15;2.45;;;1.50;;
59440;SDS011;45245;51.538;11.870;2022-07-24T08:36:40;1.70;;;1.60;;
59440;SDS011;45245;51.538;11.870;2022-07-24T08:39:05;1.85;;;1.55;;
59440;SDS011;45245;51.538;11.870;2022-07-24T08:41:31;1.90;;;1.70;;
59440;SDS011;45245;51.538;11.870;2022-07-24T08:43:58;2.33;;;2.08;;
59440;SDS011;45245;51.538;11.870;2022-07-24T08:46:24;2.95;;;1.67;;
59440;SDS011;45245;51.538;11.870;2022-07-24T08:48:51;2.13;;;1.90;;
59440;SDS011;45245;51.538;11.870;2022-07-24T08:51:16;1.40;;;1.30;;
59440;SDS011;45245;51.538;11.870;2022-07-24T08:53:43;3.92;;;1.52;;
59440;SDS011;45245;51.538;11.870;2022-07-24T08:56:09;2.67;;;1.80;;
59440;SDS011;45245;51.538;11.870;2022-07-24T08:58:35;2.08;;;1.73;;
59440;SDS011;45245;51.538;11.870;2022-07-24T09:01:02;1.70;;;1.60;;
59440;SDS011;45245;51.538;11.870;2022-07-24T09:03:27;2.17;;;1.48;;
59440;SDS011;45245;51.538;11.870;2022-07-24T09:05:53;1.95;;;1.50;;
59440;SDS011;45245;51.538;11.870;2022-07-24T09:08:23;1.83;;;1.73;;
59440;SDS011;45245;51.538;11.870;2022-07-24T09:10:58;1.90;;;1.60;;
59440;SDS011;45245;51.538;11.870;2022-07-24T09:13:25;2.40;;;1.70;;
59440;SDS011;45245;51.538;11.870;2022-07-24T09:15:52;3.50;;;2.10;;
59440;SDS011;45245;51.538;11.870;2022-07-24T09:20:53;1.80;;;1.70;;
59440;SDS011;45245;51.538;11.870;2022-07-24T09:23:19;1.85;;;1.75;;
59440;SDS011;45245;51.538;11.870;2022-07-24T09:25:49;1.85;;;1.75;;
59440;SDS011;45245;51.538;11.870;2022-07-24T09:28:19;2.10;;;1.73;;
59440;SDS011;45245;51.538;11.870;2022-07-24T09:30:45;2.08;;;1.83;;
59440;SDS011;45245;51.538;11.870;2022-07-24T09:38:06;2.88;;;2.25;;
59440;SDS011;45245;51.538;11.870;2022-07-24T09:40:33;2.72;;;2.25;;
59440;SDS011;45245;51.538;11.870;2022-07-24T09:43:13;2.28;;;2.08;;
59440;SDS011;45245;51.538;11.870;2022-07-24T09:48:36;3.05;;;2.00;;
59440;SDS011;45245;51.538;11.870;2022-07-24T09:51:05;1.70;;;1.60;;
59440;SDS011;45245;51.538;11.870;2022-07-24T09:53:41;1.75;;;1.65;;
59440;SDS011;45245;51.538;11.870;2022-07-24T09:56:14;2.40;;;1.80;;
59440;SDS011;45245;51.538;11.870;2022-07-24T10:01:09;2.00;;;1.90;;
59440;SDS011;45245;51.538;11.870;2022-07-24T10:03:35;2.65;;;2.03;;
59440;SDS011;45245;51.538;11.870;2022-07-24T10:06:06;3.22;;;2.45;;
59440;SDS011;45245;51.538;11.870;2022-07-24T10:08:34;2.03;;;1.85;;
59440;SDS011;45245;51.538;11.870;2022-07-24T10:11:01;2.28;;;1.80;;
59440;SDS011;45245;51.538;11.870;2022-07-24T10:13:26;2.10;;;1.90;;
59440;SDS011;45245;51.538;11.870;2022-07-24T10:18:23;2.25;;;2.15;;
59440;SDS011;45245;51.538;11.870;2022-07-24T10:20:55;2.50;;;2.05;;
59440;SDS011;45245;51.538;11.870;2022-07-24T10:23:31;1.98;;;1.88;;
59440;SDS011;45245;51.538;11.870;2022-07-24T10:26:05;2.55;;;1.83;;
59440;SDS011;45245;51.538;11.870;2022-07-24T10:28:39;1.75;;;1.65;;
59440;SDS011;45245;51.538;11.870;2022-07-24T10:31:08;2.10;;;1.85;;
59440;SDS011;45245;51.538;11.870;2022-07-24T10:33:35;4.22;;;1.90;;
59440;SDS011;45245;51.538;11.870;2022-07-24T10:36:02;1.88;;;1.77;;
59440;SDS011;45245;51.538;11.870;2022-07-24T10:38:32;1.92;;;1.83;;
59440;SDS011;45245;51.538;11.870;2022-07-24T10:41:02;1.73;;;1.63;;
59440;SDS011;45245;51.538;11.870;2022-07-24T10:43:30;2.30;;;1.95;;
59440;SDS011;45245;51.538;11.870;2022-07-24T10:53:29;2.17;;;1.98;;
59440;SDS011;45245;51.538;11.870;2022-07-24T10:58:58;2.10;;;1.88;;
59440;SDS011;45245;51.538;11.870;2022-07-24T11:01:36;2.75;;;2.10;;
59440;SDS011;45245;51.538;11.870;2022-07-24T11:04:42;2.95;;;1.98;;
59440;SDS011;45245;51.538;11.870;2022-07-24T11:07:08;2.08;;;1.92;;
59440;SDS011;45245;51.538;11.870;2022-07-24T11:12:25;3.03;;;1.90;;
59440;SDS011;45245;51.538;11.870;2022-07-24T11:14:52;2.08;;;1.95;;
59440;SDS011;45245;51.538;11.870;2022-07-24T11:17:36;3.15;;;1.98;;
59440;SDS011;45245;51.538;11.870;2022-07-24T11:20:04;2.80;;;2.10;;
59440;SDS011;45245;51.538;11.870;2022-07-24T11:23:07;2.30;;;2.10;;
59440;SDS011;45245;51.538;11.870;2022-07-24T11:25:28;2.42;;;2.30;;
59440;SDS011;45245;51.538;11.870;2022-07-24T11:28:05;2.40;;;2.20;;
59440;SDS011;45245;51.538;11.870;2022-07-24T11:30:44;2.50;;;2.30;;
59440;SDS011;45245;51.538;11.870;2022-07-24T11:33:10;2.75;;;2.20;;
59440;SDS011;45245;51.538;11.870;2022-07-24T11:35:36;2.45;;;2.25;;
59440;SDS011;45245;51.538;11.870;2022-07-24T11:38:04;1.95;;;1.85;;
59440;SDS011;45245;51.538;11.870;2022-07-24T11:40:31;2.67;;;2.47;;
59440;SDS011;45245;51.538;11.870;2022-07-24T11:42:58;2.38;;;2.17;;
59440;SDS011;45245;51.538;11.870;2022-07-24T11:45:25;2.55;;;2.35;;
59440;SDS011;45245;51.538;11.870;2022-07-24T11:47:51;2.55;;;2.35;;
59440;SDS011;45245;51.538;11.870;2022-07-24T11:50:19;2.33;;;2.13;;
59440;SDS011;45245;51.538;11.870;2022-07-24T11:52:49;3.05;;;2.08;;
59440;SDS011;45245;51.538;11.870;2022-07-24T11:55:16;2.47;;;2.08;;
59440;SDS011;45245;51.538;11.870;2022-07-24T11:57:44;2.47;;;2.28;;
59440;SDS011;45245;51.538;11.870;2022-07-24T12:00:11;2.70;;;2.50;;
59440;SDS011;45245;51.538;11.870;2022-07-24T12:02:47;2.50;;;2.30;;
59440;SDS011;45245;51.538;11.870;2022-07-24T12:05:26;3.30;;;2.40;;
59440;SDS011;45245;51.538;11.870;2022-07-24T12:07:54;3.28;;;2.38;;
59440;SDS011;45245;51.538;11.870;2022-07-24T12:10:21;2.40;;;2.25;;
59440;SDS011;45245;51.538;11.870;2022-07-24T12:12:48;2.50;;;2.28;;
59440;SDS011;45245;51.538;11.870;2022-07-24T12:15:14;2.42;;;2.33;;
59440;SDS011;45245;51.538;11.870;2022-07-24T12:20:30;3.40;;;2.38;;
59440;SDS011;45245;51.538;11.870;2022-07-24T12:23:00;2.13;;;2.03;;
59440;SDS011;45245;51.538;11.870;2022-07-24T12:25:27;2.50;;;2.30;;
59440;SDS011;45245;51.538;11.870;2022-07-24T12:28:11;2.35;;;2.15;;
59440;SDS011;45245;51.538;11.870;2022-07-24T12:30:45;2.33;;;2.13;;
59440;SDS011;45245;51.538;11.870;2022-07-24T12:38:28;3.10;;;2.35;;
59440;SDS011;45245;51.538;11.870;2022-07-24T12:41:16;2.40;;;2.20;;
59440;SDS011;45245;51.538;11.870;2022-07-24T12:43:47;2.75;;;1.88;;
59440;SDS011;45245;51.538;11.870;2022-07-24T12:46:12;2.33;;;1.90;;
59440;SDS011;45245;51.538;11.870;2022-07-24T12:48:38;2.20;;;2.10;;
59440;SDS011;45245;51.538;11.870;2022-07-24T12:51:06;2.28;;;2.17;;
59440;SDS011;45245;51.538;11.870;2022-07-24T12:53:35;2.20;;;2.03;;
59440;SDS011;45245;51.538;11.870;2022-07-24T12:58:46;2.15;;;2.05;;
59440;SDS011;45245;51.538;11.870;2022-07-24T13:01:14;2.15;;;1.95;;
59440;SDS011;45245;51.538;11.870;2022-07-24T13:03:40;2.25;;;2.15;;
59440;SDS011;45245;51.538;11.870;2022-07-24T13:06:05;2.30;;;2.05;;
59440;SDS011;45245;51.538;11.870;2022-07-24T13:08:31;2.20;;;2.00;;
59440;SDS011;45245;51.538;11.870;2022-07-24T13:10:56;2.38;;;2.17;;
59440;SDS011;45245;51.538;11.870;2022-07-24T13:13:22;2.55;;;2.25;;
59440;SDS011;45245;51.538;11.870;2022-07-24T13:15:47;2.47;;;2.33;;
59440;SDS011;45245;51.538;11.870;2022-07-24T13:18:12;2.22;;;2.03;;
59440;SDS011;45245;51.538;11.870;2022-07-24T13:20:38;2.45;;;2.25;;
59440;SDS011;45245;51.538;11.870;2022-07-24T13:23:03;2.33;;;2.17;;
59440;SDS011;45245;51.538;11.870;2022-07-24T13:25:28;3.25;;;2.30;;
59440;SDS011;45245;51.538;11.870;2022-07-24T13:27:54;3.17;;;2.72;;
59440;SDS011;45245;51.538;11.870;2022-07-24T13:30:19;2.55;;;2.35;;
59440;SDS011;45245;51.538;11.870;2022-07-24T13:32:45;2.08;;;1.98;;
59440;SDS011;45245;51.538;11.870;2022-07-24T13:35:10;3.20;;;2.10;;
59440;SDS011;45245;51.538;11.870;2022-07-24T13:37:35;2.30;;;2.10;;
59440;SDS011;45245;51.538;11.870;2022-07-24T13:40:01;2.20;;;2.00;;
59440;SDS011;45245;51.538;11.870;2022-07-24T13:42:28;2.38;;;2.15;;
59440;SDS011;45245;51.538;11.870;2022-07-24T13:44:53;3.05;;;1.95;;
59440;SDS011;45245;51.538;11.870;2022-07-24T13:47:18;2.53;;;2.33;;
59440;SDS011;45245;51.538;11.870;2022-07-24T13:49:44;1.83;;;1.73;;
59440;SDS011;45245;51.538;11.870;2022-07-24T13:52:09;2.50;;;2.15;;
59440;SDS011;45245;51.538;11.870;2022-07-24T13:54:34;2.08;;;1.98;;
59440;SDS011;45245;51.538;11.870;2022-07-24T13:57:00;1.90;;;1.80;;
59440;SDS011;45245;51.538;11.870;2022-07-24T13:59:28;1.92;;;1.83;;
59440;SDS011;45245;51.538;11.870;2022-07-24T14:01:53;2.85;;;2.13;;
59440;SDS011;45245;51.538;11.870;2022-07-24T14:04:18;2.35;;;1.70;;
59440;SDS011;45245;51.538;11.870;2022-07-24T14:06:44;1.98;;;1.88;;
59440;SDS011;45245;51.538;11.870;2022-07-24T14:09:09;2.10;;;2.00;;
59440;SDS011;45245;51.538;11.870;2022-07-24T14:11:34;1.90;;;1.80;;
59440;SDS011;45245;51.538;11.870;2022-07-24T14:14:00;2.10;;;1.98;;
59440;SDS011;45245;51.538;11.870;2022-07-24T14:16:25;2.10;;;1.90;;
59440;SDS011;45245;51.538;11.870;2022-07-24T14:18:51;1.92;;;1.83;;
59440;SDS011;45245;51.538;11.870;2022-07-24T14:21:16;2.28;;;2.08;;
59440;SDS011;45245;51.538;11.870;2022-07-24T14:23:41;2.20;;;2.00;;
59440;SDS011;45245;51.538;11.870;2022-07-24T14:26:07;2.30;;;2.10;;
59440;SDS011;45245;51.538;11.870;2022-07-24T14:28:32;2.33;;;2.13;;
59440;SDS011;45245;51.538;11.870;2022-07-24T14:30:57;2.10;;;2.00;;
59440;SDS011;45245;51.538;11.870;2022-07-24T14:33:23;2.53;;;2.20;;
59440;SDS011;45245;51.538;11.870;2022-07-24T14:35:49;1.67;;;1.58;;
59440;SDS011;45245;51.538;11.870;2022-07-24T14:38:15;1.83;;;1.70;;
59440;SDS011;45245;51.538;11.870;2022-07-24T14:40:40;2.65;;;1.88;;
59440;SDS011;45245;51.538;11.870;2022-07-24T14:43:06;1.85;;;1.75;;
59440;SDS011;45245;51.538;11.870;2022-07-24T14:45:31;2.15;;;1.85;;
59440;SDS011;45245;51.538;11.870;2022-07-24T14:47:57;1.85;;;1.75;;
59440;SDS011;45245;51.538;11.870;2022-07-24T14:50:22;2.03;;;1.80;;
59440;SDS011;45245;51.538;11.870;2022-07-24T14:52:47;1.67;;;1.58;;
59440;SDS011;45245;51.538;11.870;2022-07-24T14:55:13;1.85;;;1.75;;
59440;SDS011;45245;51.538;11.870;2022-07-24T14:57:38;2.45;;;2.25;;
59440;SDS011;45245;51.538;11.870;2022-07-24T15:00:04;2.28;;;2.08;;
59440;SDS011;45245;51.538;11.870;2022-07-24T15:02:30;2.13;;;2.03;;
59440;SDS011;45245;51.538;11.870;2022-07-24T15:04:56;2.15;;;1.95;;
59440;SDS011;45245;51.538;11.870;2022-07-24T15:07:21;2.13;;;1.98;;
59440;SDS011;45245;51.538;11.870;2022-07-24T15:09:46;1.75;;;1.65;;